AirNav   Pilot Hours Calculator
 
 1464 users online  

OL36 Trophy Ridge Airport
Pawhuska, Oklahoma, USA


FAA INFORMATION EFFECTIVE 03 NOVEMBER 2022

Location

FAA Identifier: OL36
Lat/Long: 36-59-18.3500N 096-19-20.0900W
36-59.305833N 096-19.334833W
36.9884306,-96.3222472
(estimated)
Elevation: 987 ft. / 301 m (estimated)
From city: 19 miles N of PAWHUSKA, OK
Time zone: UTC -6 (UTC -5 during Daylight Saving Time)
Zip code: 67360

Airport Operations

Airport use: Private use. Permission required prior to landing
Activation date: 01/2022
Control tower: no
ARTCC: KANSAS CITY CENTER
FSS: MC ALESTER FLIGHT SERVICE STATION
Attendance: 
Wind indicator: no
Segmented circle: no

Nearby radio navigation aids

VOR radial/distance  VOR name  Freq  Var
BVOr294/17.3BARTLESVILLE VOR/DME117.9008E

Airport Services

Runway Information

Runway 17/35

Dimensions: 980 x 50 ft. / 299 x 15 m
Surface: turf/dirt, in fair condition
RUNWAY 17  RUNWAY 35
Latitude: 36-59.385000N36-59.226667N
Longitude: 096-19.354500W096-19.315167W
Elevation: 980.0 ft.987.0 ft.
Traffic pattern: leftleft

Airport Ownership and Management from official FAA records

Ownership: Privately-owned
Owner: THE 703 RANCH, LLC
8212 N 440 ROAD
BIG CABIN, OK 74332
Phone 214-708-7595
Manager: CLAYTON MCMARTIN
8212 N 440 ROAD
BIG CABIN, OK 74332
Phone 214-708-7595

Airport Operational Statistics

Aircraft based on the field: 1
Single engine airplanes: 1
    

Instrument Procedures

There are no published instrument procedures at OL36.

Some nearby airports with instrument procedures:

KBVO - Bartlesville Municipal Airport (20 nm SE)
KIDP - Independence Municipal Airport (28 nm E)
KWLD - Strother Field Airport (36 nm W)
KCFV - Coffeyville Municipal Airport (36 nm E)
KPNC - Ponca City Regional Airport (40 nm W)
 
Loc | Ops | Rwys | IFR | FBO | Links
Com | Nav | Svcs | Stats | Notes
Aerial photo
No photo
 
Airport distance calculator
Flying to Trophy Ridge Airport? Find the distance to fly.

From to OL36

Sunrise and sunset
Times for 29-Nov-2022
 Local
(UTC-6)
 Zulu
(UTC)
Morning civil twilight06:5112:51
Sunrise07:1913:19
Sunset17:0823:08
Evening civil twilight17:3723:37

Current date and time
Zulu (UTC)  29-Nov-2022 17:18:06
Local (UTC-6)  29-Nov-2022 11:18:06
 
METAR
KBVO 
20nm SE 
291653Z AUTO 25013G23KT 10SM CLR 18/05 A2962 RMK AO2 PK WND 22026/1555 SLP022 T01780050
KIDP 
28nm E 
291655Z AUTO 26020G25KT 10SM CLR 16/05 A2960 RMK AO2 T01640050
KWLD 
36nm W 
291654Z AUTO 32014KT 10SM SCT017 BKN023 09/02 A2967 RMK AO2 SLP046 T00890017
KCFV 
37nm E 
291652Z AUTO 25019G26KT 10SM CLR 18/06 A2957 RMK AO2 PK WND 24029/1613 SLP011 T01780061
TAF
KBVO 
20nm SE 
291126Z 2912/3012 16012G21KT P6SM SCT025 WS020/20050KT FM291600 21017G26KT P6SM SCT250 FM292000 27012G20KT P6SM FEW250 FM292300 33014G22KT P6SM FEW100 FEW250 FM300900 34005KT P6SM SKC
NOTAMs
Click for the latest NOTAMs
NOTAMs are issued by the DoD/FAA and will open in a separate window not controlled by AirNav.

 

 
 

Would you like to see your business listed on this page?

 If your business provides an interesting product or service to pilots, flight crews, aircraft, or users of the Trophy Ridge Airport, you should consider listing it here.  To start the listing process, click on the button below
 
Add a business
 

Other Pages about Trophy Ridge Airport

Update a link
 
Copyright © AirNav, LLC. All rights reserved. Privacy Policy  Contact